DeKalb Peachtree Airport
KPDK : now visible

Airfield :











YOU CAN JOIN US ON...

 
LOGIN :

Register | Disclaimer

   EN    FR    IT 

 









Legend :    VFR   Marginal VFR   IFR   Intensive IFR   Very Intensive IFR
Visi :
Ceiling :
>= 8 km
>= 3000ft
5 to 8 km
1000 to 3000 ft
1500m to 5 km
500 to 1000 ft
800 to 1500m
200 to 500 ft
< 800m
< 200 ft
Symbols :   Thunderstorms  Fog  Heavy snow  Heavy precipitations  Wind > 20 kt






- Airport Elevation : 1003 ft


KPDK - DeKalb Peachtree

CURRENT METAR :
  • 140553Z AUTO 08003KT 10SM CLR 01/M07 A3032 RMK AO2 SLP283 T00061072 10028 20006 53008 $

EXPIRED METARs :
  • 140453Z AUTO 10SM CLR 02/M07 A3031 RMK AO2 SLP279 T00171072 400781067 $
  • 140353Z VRB04KT 10SM CLR 02/M07 A3030 RMK AO2 SLP276 T00171072 $

TAF KPDK
Valid from the 14 at 06:00 until the 15 at 06:00 UTC


140558Z 1406/1506 VRB05KT P6SM BKN250
FM141000 VRB03KT P6SM SCT012 OVC025
FM141400 VRB03KT P6SM VCSH SCT025 BKN040 OVC100
FM141900 04005KT P6SM SCT009 BKN030 OVC040
PROB30 1421/1502 -RA
FM150200 VRB03KT P6SM -RA FEW005 OVC009
FM150500 VRB03KT 4SM -RA BR SCT005 OVC008



MET'MAP, your aeronautical weather chart ! - Copyright ORBIFLY December 2007 - Disclaimer

ORBIFLY MET'MAP TEAM :

Programming & Development : Alexandra Zaïnal
Concept & Development : Baudouin d'Aumeries
Co-Development & Prog : Marc-Olivier Méhu
Technical & hardware support : Manuel Goepfert

Contact : metmap@orbifly.com




SOURCES & CREDITS :

   NOAA       Earth
Advisory